sensor_id;sensor_type;location;lat;lon;timestamp;P1;durP1;ratioP1;P2;durP2;ratioP2
9409;SDS011;4744;52.576;13.568;2023-12-04T00:01:12;12.60;;;9.50;;
9409;SDS011;4744;52.576;13.568;2023-12-04T00:03:39;14.13;;;9.93;;
9409;SDS011;4744;52.576;13.568;2023-12-04T00:06:06;14.37;;;10.20;;
9409;SDS011;4744;52.576;13.568;2023-12-04T00:08:33;11.57;;;8.50;;
9409;SDS011;4744;52.576;13.568;2023-12-04T00:11:02;13.80;;;9.27;;
9409;SDS011;4744;52.576;13.568;2023-12-04T00:13:29;15.10;;;9.77;;
9409;SDS011;4744;52.576;13.568;2023-12-04T00:15:57;14.00;;;9.90;;
9409;SDS011;4744;52.576;13.568;2023-12-04T00:18:24;12.30;;;9.20;;
9409;SDS011;4744;52.576;13.568;2023-12-04T00:20:51;14.93;;;10.10;;
9409;SDS011;4744;52.576;13.568;2023-12-04T00:23:18;13.77;;;10.07;;
9409;SDS011;4744;52.576;13.568;2023-12-04T00:25:45;15.27;;;9.83;;
9409;SDS011;4744;52.576;13.568;2023-12-04T00:28:12;14.17;;;9.40;;
9409;SDS011;4744;52.576;13.568;2023-12-04T00:30:38;12.87;;;9.40;;
9409;SDS011;4744;52.576;13.568;2023-12-04T00:33:07;13.03;;;9.43;;
9409;SDS011;4744;52.576;13.568;2023-12-04T00:35:34;13.50;;;9.33;;
9409;SDS011;4744;52.576;13.568;2023-12-04T00:38:00;11.53;;;9.10;;
9409;SDS011;4744;52.576;13.568;2023-12-04T00:40:28;12.40;;;9.47;;
9409;SDS011;4744;52.576;13.568;2023-12-04T00:42:54;14.00;;;9.17;;
9409;SDS011;4744;52.576;13.568;2023-12-04T00:45:21;13.40;;;8.97;;
9409;SDS011;4744;52.576;13.568;2023-12-04T00:47:48;13.97;;;9.60;;
9409;SDS011;4744;52.576;13.568;2023-12-04T00:50:16;14.73;;;10.47;;
9409;SDS011;4744;52.576;13.568;2023-12-04T00:52:43;13.67;;;9.17;;
9409;SDS011;4744;52.576;13.568;2023-12-04T00:55:10;12.67;;;9.20;;
9409;SDS011;4744;52.576;13.568;2023-12-04T00:57:38;14.60;;;10.00;;
9409;SDS011;4744;52.576;13.568;2023-12-04T01:00:06;15.50;;;9.83;;
9409;SDS011;4744;52.576;13.568;2023-12-04T01:02:34;16.63;;;10.17;;
9409;SDS011;4744;52.576;13.568;2023-12-04T01:05:00;14.83;;;10.07;;
9409;SDS011;4744;52.576;13.568;2023-12-04T01:07:29;14.23;;;9.50;;
9409;SDS011;4744;52.576;13.568;2023-12-04T01:09:56;15.67;;;10.40;;
9409;SDS011;4744;52.576;13.568;2023-12-04T01:12:22;14.77;;;9.90;;
9409;SDS011;4744;52.576;13.568;2023-12-04T01:14:49;16.40;;;10.03;;
9409;SDS011;4744;52.576;13.568;2023-12-04T01:17:16;15.23;;;9.80;;
9409;SDS011;4744;52.576;13.568;2023-12-04T01:19:43;14.23;;;9.37;;
9409;SDS011;4744;52.576;13.568;2023-12-04T01:22:10;15.27;;;10.17;;
9409;SDS011;4744;52.576;13.568;2023-12-04T01:24:38;14.10;;;9.67;;
9409;SDS011;4744;52.576;13.568;2023-12-04T01:27:05;15.60;;;10.27;;
9409;SDS011;4744;52.576;13.568;2023-12-04T01:29:32;14.70;;;10.10;;
9409;SDS011;4744;52.576;13.568;2023-12-04T01:31:59;15.60;;;9.93;;
9409;SDS011;4744;52.576;13.568;2023-12-04T01:34:26;14.77;;;9.83;;
9409;SDS011;4744;52.576;13.568;2023-12-04T01:36:53;13.87;;;9.77;;
9409;SDS011;4744;52.576;13.568;2023-12-04T01:39:19;14.87;;;9.70;;
9409;SDS011;4744;52.576;13.568;2023-12-04T01:41:48;14.83;;;10.30;;
9409;SDS011;4744;52.576;13.568;2023-12-04T01:44:15;14.57;;;10.13;;
9409;SDS011;4744;52.576;13.568;2023-12-04T01:46:42;14.97;;;10.00;;
9409;SDS011;4744;52.576;13.568;2023-12-04T01:49:10;15.10;;;10.27;;
9409;SDS011;4744;52.576;13.568;2023-12-04T01:51:37;14.83;;;9.83;;
9409;SDS011;4744;52.576;13.568;2023-12-04T01:54:04;13.60;;;9.30;;
9409;SDS011;4744;52.576;13.568;2023-12-04T01:56:31;15.93;;;9.93;;
9409;SDS011;4744;52.576;13.568;2023-12-04T01:59:01;13.30;;;9.60;;
9409;SDS011;4744;52.576;13.568;2023-12-04T02:01:28;13.17;;;9.47;;
9409;SDS011;4744;52.576;13.568;2023-12-04T02:03:55;12.73;;;8.93;;
9409;SDS011;4744;52.576;13.568;2023-12-04T02:06:25;15.33;;;9.63;;
9409;SDS011;4744;52.576;13.568;2023-12-04T02:08:52;14.20;;;9.23;;
9409;SDS011;4744;52.576;13.568;2023-12-04T02:11:19;12.63;;;9.00;;
9409;SDS011;4744;52.576;13.568;2023-12-04T02:13:46;14.57;;;10.33;;
9409;SDS011;4744;52.576;13.568;2023-12-04T02:16:14;14.10;;;9.80;;
9409;SDS011;4744;52.576;13.568;2023-12-04T02:18:43;14.70;;;10.07;;
9409;SDS011;4744;52.576;13.568;2023-12-04T02:21:10;16.87;;;10.80;;
9409;SDS011;4744;52.576;13.568;2023-12-04T02:23:37;14.33;;;9.77;;
9409;SDS011;4744;52.576;13.568;2023-12-04T02:26:12;14.67;;;9.67;;
9409;SDS011;4744;52.576;13.568;2023-12-04T02:28:42;17.00;;;10.37;;
9409;SDS011;4744;52.576;13.568;2023-12-04T02:31:15;14.27;;;9.40;;
9409;SDS011;4744;52.576;13.568;2023-12-04T02:33:44;17.20;;;10.27;;
9409;SDS011;4744;52.576;13.568;2023-12-04T02:36:13;16.40;;;10.47;;
9409;SDS011;4744;52.576;13.568;2023-12-04T02:38:40;16.67;;;9.80;;
9409;SDS011;4744;52.576;13.568;2023-12-04T02:41:09;15.63;;;9.80;;
9409;SDS011;4744;52.576;13.568;2023-12-04T02:43:36;14.87;;;9.77;;
9409;SDS011;4744;52.576;13.568;2023-12-04T02:46:03;14.67;;;9.33;;
9409;SDS011;4744;52.576;13.568;2023-12-04T02:48:30;14.80;;;9.43;;
9409;SDS011;4744;52.576;13.568;2023-12-04T02:50:57;13.03;;;9.13;;
9409;SDS011;4744;52.576;13.568;2023-12-04T02:53:24;15.90;;;10.13;;
9409;SDS011;4744;52.576;13.568;2023-12-04T02:55:50;15.93;;;10.10;;
9409;SDS011;4744;52.576;13.568;2023-12-04T02:58:19;13.10;;;9.37;;
9409;SDS011;4744;52.576;13.568;2023-12-04T03:00:46;15.20;;;10.97;;
9409;SDS011;4744;52.576;13.568;2023-12-04T03:03:12;13.77;;;9.87;;
9409;SDS011;4744;52.576;13.568;2023-12-04T03:05:39;15.50;;;10.40;;
9409;SDS011;4744;52.576;13.568;2023-12-04T03:08:06;15.17;;;10.30;;
9409;SDS011;4744;52.576;13.568;2023-12-04T03:10:33;15.07;;;10.63;;
9409;SDS011;4744;52.576;13.568;2023-12-04T03:13:00;16.47;;;10.60;;
9409;SDS011;4744;52.576;13.568;2023-12-04T03:15:28;17.40;;;11.03;;
9409;SDS011;4744;52.576;13.568;2023-12-04T03:17:55;15.47;;;10.47;;
9409;SDS011;4744;52.576;13.568;2023-12-04T03:20:24;16.63;;;10.50;;
9409;SDS011;4744;52.576;13.568;2023-12-04T03:22:51;16.27;;;10.90;;
9409;SDS011;4744;52.576;13.568;2023-12-04T03:25:18;17.57;;;11.07;;
9409;SDS011;4744;52.576;13.568;2023-12-04T03:27:45;17.00;;;10.87;;
9409;SDS011;4744;52.576;13.568;2023-12-04T03:30:12;16.37;;;11.00;;
9409;SDS011;4744;52.576;13.568;2023-12-04T03:32:40;14.93;;;10.50;;
9409;SDS011;4744;52.576;13.568;2023-12-04T03:35:07;13.77;;;9.73;;
9409;SDS011;4744;52.576;13.568;2023-12-04T03:37:34;14.97;;;10.37;;
9409;SDS011;4744;52.576;13.568;2023-12-04T03:40:03;16.77;;;10.60;;
9409;SDS011;4744;52.576;13.568;2023-12-04T03:42:30;16.53;;;10.77;;
9409;SDS011;4744;52.576;13.568;2023-12-04T03:44:57;14.67;;;10.23;;
9409;SDS011;4744;52.576;13.568;2023-12-04T03:47:24;15.33;;;10.53;;
9409;SDS011;4744;52.576;13.568;2023-12-04T03:49:52;13.87;;;9.40;;
9409;SDS011;4744;52.576;13.568;2023-12-04T03:52:19;14.50;;;10.17;;
9409;SDS011;4744;52.576;13.568;2023-12-04T03:54:46;14.60;;;10.37;;
9409;SDS011;4744;52.576;13.568;2023-12-04T03:57:13;17.00;;;10.80;;
9409;SDS011;4744;52.576;13.568;2023-12-04T03:59:40;16.73;;;10.73;;
9409;SDS011;4744;52.576;13.568;2023-12-04T04:02:07;18.50;;;11.10;;
9409;SDS011;4744;52.576;13.568;2023-12-04T04:04:33;16.57;;;11.07;;
9409;SDS011;4744;52.576;13.568;2023-12-04T04:07:02;16.70;;;10.97;;
9409;SDS011;4744;52.576;13.568;2023-12-04T04:09:29;18.13;;;10.90;;
9409;SDS011;4744;52.576;13.568;2023-12-04T04:11:56;16.93;;;11.03;;
9409;SDS011;4744;52.576;13.568;2023-12-04T04:14:23;17.83;;;11.27;;
9409;SDS011;4744;52.576;13.568;2023-12-04T04:16:49;16.83;;;10.87;;
9409;SDS011;4744;52.576;13.568;2023-12-04T04:19:16;18.00;;;11.27;;
9409;SDS011;4744;52.576;13.568;2023-12-04T04:21:43;18.17;;;11.90;;
9409;SDS011;4744;52.576;13.568;2023-12-04T04:24:10;18.63;;;10.97;;
9409;SDS011;4744;52.576;13.568;2023-12-04T04:26:37;17.53;;;11.20;;
9409;SDS011;4744;52.576;13.568;2023-12-04T04:29:04;17.27;;;11.43;;
9409;SDS011;4744;52.576;13.568;2023-12-04T04:31:31;20.17;;;12.03;;
9409;SDS011;4744;52.576;13.568;2023-12-04T04:33:58;19.13;;;11.37;;
9409;SDS011;4744;52.576;13.568;2023-12-04T04:36:25;21.50;;;12.10;;
9409;SDS011;4744;52.576;13.568;2023-12-04T04:38:52;16.70;;;11.13;;
9409;SDS011;4744;52.576;13.568;2023-12-04T04:41:20;17.40;;;11.17;;
9409;SDS011;4744;52.576;13.568;2023-12-04T04:43:47;16.87;;;12.13;;
9409;SDS011;4744;52.576;13.568;2023-12-04T04:46:14;20.97;;;11.83;;
9409;SDS011;4744;52.576;13.568;2023-12-04T04:48:40;16.20;;;11.13;;
9409;SDS011;4744;52.576;13.568;2023-12-04T04:51:07;19.40;;;11.83;;
9409;SDS011;4744;52.576;13.568;2023-12-04T04:53:34;19.23;;;11.80;;
9409;SDS011;4744;52.576;13.568;2023-12-04T04:56:01;19.47;;;11.77;;
9409;SDS011;4744;52.576;13.568;2023-12-04T04:58:30;19.80;;;11.30;;
9409;SDS011;4744;52.576;13.568;2023-12-04T05:00:56;16.83;;;11.20;;
9409;SDS011;4744;52.576;13.568;2023-12-04T05:03:23;16.43;;;10.50;;
9409;SDS011;4744;52.576;13.568;2023-12-04T05:05:50;18.20;;;11.50;;
9409;SDS011;4744;52.576;13.568;2023-12-04T05:08:17;19.40;;;11.80;;
9409;SDS011;4744;52.576;13.568;2023-12-04T05:10:44;16.27;;;11.10;;
9409;SDS011;4744;52.576;13.568;2023-12-04T05:13:11;17.70;;;11.40;;
9409;SDS011;4744;52.576;13.568;2023-12-04T05:15:39;17.27;;;10.97;;
9409;SDS011;4744;52.576;13.568;2023-12-04T05:18:06;15.97;;;11.13;;
9409;SDS011;4744;52.576;13.568;2023-12-04T05:20:33;16.47;;;11.27;;
9409;SDS011;4744;52.576;13.568;2023-12-04T05:23:00;17.33;;;10.93;;
9409;SDS011;4744;52.576;13.568;2023-12-04T05:25:27;16.47;;;10.73;;
9409;SDS011;4744;52.576;13.568;2023-12-04T05:27:54;16.03;;;10.53;;
9409;SDS011;4744;52.576;13.568;2023-12-04T05:30:20;16.03;;;10.70;;
9409;SDS011;4744;52.576;13.568;2023-12-04T05:32:49;17.23;;;11.70;;
9409;SDS011;4744;52.576;13.568;2023-12-04T05:35:16;19.97;;;11.57;;
9409;SDS011;4744;52.576;13.568;2023-12-04T05:37:43;16.17;;;11.43;;
9409;SDS011;4744;52.576;13.568;2023-12-04T05:40:10;16.53;;;11.40;;
9409;SDS011;4744;52.576;13.568;2023-12-04T05:42:37;16.83;;;11.07;;
9409;SDS011;4744;52.576;13.568;2023-12-04T05:45:04;16.63;;;10.63;;
9409;SDS011;4744;52.576;13.568;2023-12-04T05:47:32;16.07;;;10.10;;
9409;SDS011;4744;52.576;13.568;2023-12-04T05:50:01;18.83;;;11.10;;
9409;SDS011;4744;52.576;13.568;2023-12-04T05:52:28;15.67;;;10.23;;
9409;SDS011;4744;52.576;13.568;2023-12-04T05:54:55;16.20;;;11.10;;
9409;SDS011;4744;52.576;13.568;2023-12-04T05:57:21;17.23;;;11.10;;
9409;SDS011;4744;52.576;13.568;2023-12-04T05:59:48;17.17;;;11.50;;
9409;SDS011;4744;52.576;13.568;2023-12-04T06:02:15;16.93;;;11.50;;
9409;SDS011;4744;52.576;13.568;2023-12-04T06:04:42;14.77;;;10.47;;
9409;SDS011;4744;52.576;13.568;2023-12-04T06:07:10;16.93;;;11.83;;
9409;SDS011;4744;52.576;13.568;2023-12-04T06:09:37;18.63;;;11.27;;
9409;SDS011;4744;52.576;13.568;2023-12-04T06:12:04;17.67;;;11.50;;
9409;SDS011;4744;52.576;13.568;2023-12-04T06:14:33;17.63;;;11.40;;
9409;SDS011;4744;52.576;13.568;2023-12-04T06:17:00;17.20;;;11.00;;
9409;SDS011;4744;52.576;13.568;2023-12-04T06:19:27;15.50;;;11.27;;
9409;SDS011;4744;52.576;13.568;2023-12-04T06:21:54;18.37;;;11.83;;
9409;SDS011;4744;52.576;13.568;2023-12-04T06:24:23;18.87;;;12.30;;
9409;SDS011;4744;52.576;13.568;2023-12-04T06:26:51;18.30;;;11.57;;
9409;SDS011;4744;52.576;13.568;2023-12-04T06:29:18;19.57;;;11.97;;
9409;SDS011;4744;52.576;13.568;2023-12-04T06:31:46;18.33;;;11.80;;
9409;SDS011;4744;52.576;13.568;2023-12-04T06:34:13;16.77;;;11.37;;
9409;SDS011;4744;52.576;13.568;2023-12-04T06:36:41;17.60;;;11.37;;
9409;SDS011;4744;52.576;13.568;2023-12-04T06:39:09;18.93;;;12.17;;
9409;SDS011;4744;52.576;13.568;2023-12-04T06:41:39;18.30;;;11.73;;
9409;SDS011;4744;52.576;13.568;2023-12-04T06:44:07;17.90;;;11.30;;
9409;SDS011;4744;52.576;13.568;2023-12-04T06:46:36;19.00;;;12.10;;
9409;SDS011;4744;52.576;13.568;2023-12-04T06:49:04;18.43;;;12.17;;
9409;SDS011;4744;52.576;13.568;2023-12-04T06:51:32;18.37;;;12.20;;
9409;SDS011;4744;52.576;13.568;2023-12-04T06:53:59;16.63;;;12.13;;
9409;SDS011;4744;52.576;13.568;2023-12-04T06:56:26;18.00;;;12.23;;
9409;SDS011;4744;52.576;13.568;2023-12-04T06:58:54;16.37;;;11.67;;
9409;SDS011;4744;52.576;13.568;2023-12-04T07:01:21;16.03;;;11.90;;
9409;SDS011;4744;52.576;13.568;2023-12-04T07:03:48;16.93;;;11.90;;
9409;SDS011;4744;52.576;13.568;2023-12-04T07:06:15;16.87;;;11.93;;
9409;SDS011;4744;52.576;13.568;2023-12-04T07:08:42;21.53;;;12.53;;
9409;SDS011;4744;52.576;13.568;2023-12-04T07:11:09;18.77;;;12.40;;
9409;SDS011;4744;52.576;13.568;2023-12-04T07:13:40;18.90;;;12.83;;
9409;SDS011;4744;52.576;13.568;2023-12-04T07:16:09;19.13;;;12.03;;
9409;SDS011;4744;52.576;13.568;2023-12-04T07:18:36;20.77;;;12.97;;
9409;SDS011;4744;52.576;13.568;2023-12-04T07:21:03;19.63;;;11.70;;
9409;SDS011;4744;52.576;13.568;2023-12-04T07:23:30;17.70;;;12.27;;
9409;SDS011;4744;52.576;13.568;2023-12-04T07:25:57;20.17;;;12.50;;
9409;SDS011;4744;52.576;13.568;2023-12-04T07:28:24;17.97;;;12.37;;
9409;SDS011;4744;52.576;13.568;2023-12-04T07:30:51;17.53;;;12.23;;
9409;SDS011;4744;52.576;13.568;2023-12-04T07:33:19;18.47;;;12.57;;
9409;SDS011;4744;52.576;13.568;2023-12-04T07:35:46;16.53;;;11.97;;
9409;SDS011;4744;52.576;13.568;2023-12-04T07:38:13;18.73;;;12.17;;
9409;SDS011;4744;52.576;13.568;2023-12-04T07:40:40;18.53;;;12.50;;
9409;SDS011;4744;52.576;13.568;2023-12-04T07:43:06;20.10;;;12.87;;
9409;SDS011;4744;52.576;13.568;2023-12-04T07:45:33;17.37;;;12.07;;
9409;SDS011;4744;52.576;13.568;2023-12-04T07:48:02;18.80;;;13.00;;
9409;SDS011;4744;52.576;13.568;2023-12-04T07:50:30;17.90;;;12.20;;
9409;SDS011;4744;52.576;13.568;2023-12-04T07:52:57;18.17;;;12.20;;
9409;SDS011;4744;52.576;13.568;2023-12-04T07:55:24;17.43;;;12.47;;
9409;SDS011;4744;52.576;13.568;2023-12-04T07:57:51;21.60;;;12.70;;
9409;SDS011;4744;52.576;13.568;2023-12-04T08:00:18;18.43;;;12.43;;
9409;SDS011;4744;52.576;13.568;2023-12-04T08:02:45;18.43;;;11.63;;
9409;SDS011;4744;52.576;13.568;2023-12-04T08:05:12;17.93;;;12.10;;
9409;SDS011;4744;52.576;13.568;2023-12-04T08:07:40;18.33;;;12.07;;
9409;SDS011;4744;52.576;13.568;2023-12-04T08:10:07;16.00;;;11.17;;
9409;SDS011;4744;52.576;13.568;2023-12-04T08:12:34;17.20;;;12.63;;
9409;SDS011;4744;52.576;13.568;2023-12-04T08:15:02;18.57;;;12.30;;
9409;SDS011;4744;52.576;13.568;2023-12-04T08:17:29;16.03;;;11.60;;
9409;SDS011;4744;52.576;13.568;2023-12-04T08:19:56;18.03;;;13.23;;
9409;SDS011;4744;52.576;13.568;2023-12-04T08:22:23;15.67;;;10.97;;
9409;SDS011;4744;52.576;13.568;2023-12-04T08:24:52;16.93;;;12.30;;
9409;SDS011;4744;52.576;13.568;2023-12-04T08:27:19;17.83;;;12.23;;
9409;SDS011;4744;52.576;13.568;2023-12-04T08:29:46;18.90;;;12.10;;
9409;SDS011;4744;52.576;13.568;2023-12-04T08:32:12;19.07;;;12.17;;
9409;SDS011;4744;52.576;13.568;2023-12-04T08:34:39;17.77;;;12.20;;
9409;SDS011;4744;52.576;13.568;2023-12-04T08:37:06;19.00;;;12.73;;
9409;SDS011;4744;52.576;13.568;2023-12-04T08:39:33;14.07;;;10.83;;
9409;SDS011;4744;52.576;13.568;2023-12-04T08:42:02;16.33;;;11.80;;
9409;SDS011;4744;52.576;13.568;2023-12-04T08:44:29;18.77;;;12.53;;
9409;SDS011;4744;52.576;13.568;2023-12-04T08:46:56;17.10;;;11.60;;
9409;SDS011;4744;52.576;13.568;2023-12-04T08:49:24;17.07;;;12.10;;
9409;SDS011;4744;52.576;13.568;2023-12-04T08:51:51;16.63;;;11.53;;
9409;SDS011;4744;52.576;13.568;2023-12-04T08:54:18;16.83;;;11.53;;
9409;SDS011;4744;52.576;13.568;2023-12-04T08:56:45;17.47;;;12.07;;
9409;SDS011;4744;52.576;13.568;2023-12-04T08:59:14;17.63;;;11.57;;
9409;SDS011;4744;52.576;13.568;2023-12-04T09:01:41;17.33;;;11.70;;
9409;SDS011;4744;52.576;13.568;2023-12-04T09:04:08;16.57;;;11.30;;
9409;SDS011;4744;52.576;13.568;2023-12-04T09:06:35;17.60;;;10.97;;
9409;SDS011;4744;52.576;13.568;2023-12-04T09:09:03;16.43;;;10.97;;
9409;SDS011;4744;52.576;13.568;2023-12-04T09:11:30;15.67;;;11.07;;
9409;SDS011;4744;52.576;13.568;2023-12-04T09:13:57;16.57;;;11.70;;
9409;SDS011;4744;52.576;13.568;2023-12-04T09:16:25;15.80;;;11.47;;
9409;SDS011;4744;52.576;13.568;2023-12-04T09:18:52;16.90;;;11.40;;
9409;SDS011;4744;52.576;13.568;2023-12-04T09:21:19;15.07;;;11.60;;
9409;SDS011;4744;52.576;13.568;2023-12-04T09:23:46;16.63;;;11.43;;
9409;SDS011;4744;52.576;13.568;2023-12-04T09:26:15;16.30;;;10.73;;
9409;SDS011;4744;52.576;13.568;2023-12-04T09:28:42;12.80;;;10.37;;
9409;SDS011;4744;52.576;13.568;2023-12-04T09:31:09;15.67;;;11.67;;
9409;SDS011;4744;52.576;13.568;2023-12-04T09:33:37;18.37;;;12.67;;
9409;SDS011;4744;52.576;13.568;2023-12-04T09:36:04;18.47;;;12.87;;
9409;SDS011;4744;52.576;13.568;2023-12-04T09:38:31;16.67;;;12.33;;
9409;SDS011;4744;52.576;13.568;2023-12-04T09:40:59;16.37;;;11.47;;
9409;SDS011;4744;52.576;13.568;2023-12-04T09:43:27;16.60;;;12.17;;
9409;SDS011;4744;52.576;13.568;2023-12-04T09:45:57;17.33;;;12.70;;
9409;SDS011;4744;52.576;13.568;2023-12-04T09:48:24;17.50;;;11.77;;
9409;SDS011;4744;52.576;13.568;2023-12-04T09:50:54;15.43;;;12.27;;
9409;SDS011;4744;52.576;13.568;2023-12-04T09:53:21;15.83;;;12.03;;
9409;SDS011;4744;52.576;13.568;2023-12-04T09:55:49;14.47;;;11.03;;
9409;SDS011;4744;52.576;13.568;2023-12-04T09:58:16;14.50;;;10.63;;
9409;SDS011;4744;52.576;13.568;2023-12-04T10:00:46;13.47;;;10.40;;
9409;SDS011;4744;52.576;13.568;2023-12-04T10:03:13;16.43;;;11.00;;
9409;SDS011;4744;52.576;13.568;2023-12-04T10:05:41;14.50;;;11.23;;
9409;SDS011;4744;52.576;13.568;2023-12-04T10:08:12;13.33;;;10.57;;
9409;SDS011;4744;52.576;13.568;2023-12-04T10:10:39;14.13;;;10.87;;
9409;SDS011;4744;52.576;13.568;2023-12-04T10:13:06;14.70;;;11.40;;
9409;SDS011;4744;52.576;13.568;2023-12-04T10:15:33;16.80;;;11.47;;
9409;SDS011;4744;52.576;13.568;2023-12-04T10:17:59;14.67;;;10.47;;
9409;SDS011;4744;52.576;13.568;2023-12-04T10:20:26;14.87;;;10.67;;
9409;SDS011;4744;52.576;13.568;2023-12-04T10:22:54;14.23;;;10.67;;
9409;SDS011;4744;52.576;13.568;2023-12-04T10:25:24;14.10;;;11.03;;
9409;SDS011;4744;52.576;13.568;2023-12-04T10:27:53;13.23;;;10.03;;
9409;SDS011;4744;52.576;13.568;2023-12-04T10:30:22;14.77;;;10.50;;
9409;SDS011;4744;52.576;13.568;2023-12-04T10:32:53;13.63;;;10.53;;
9409;SDS011;4744;52.576;13.568;2023-12-04T10:35:21;14.03;;;10.17;;
9409;SDS011;4744;52.576;13.568;2023-12-04T10:37:48;13.37;;;9.63;;
9409;SDS011;4744;52.576;13.568;2023-12-04T10:40:23;12.43;;;9.47;;
9409;SDS011;4744;52.576;13.568;2023-12-04T10:42:51;11.30;;;8.97;;
9409;SDS011;4744;52.576;13.568;2023-12-04T10:45:35;13.47;;;9.00;;
9409;SDS011;4744;52.576;13.568;2023-12-04T10:48:03;10.50;;;8.83;;
9409;SDS011;4744;52.576;13.568;2023-12-04T10:50:31;11.70;;;8.43;;
9409;SDS011;4744;52.576;13.568;2023-12-04T10:52:59;10.97;;;8.87;;
9409;SDS011;4744;52.576;13.568;2023-12-04T10:55:29;9.77;;;7.53;;
9409;SDS011;4744;52.576;13.568;2023-12-04T10:57:55;10.80;;;8.37;;
9409;SDS011;4744;52.576;13.568;2023-12-04T11:00:23;10.70;;;8.27;;
9409;SDS011;4744;52.576;13.568;2023-12-04T11:02:50;11.07;;;7.93;;
9409;SDS011;4744;52.576;13.568;2023-12-04T11:05:22;10.27;;;8.17;;
9409;SDS011;4744;52.576;13.568;2023-12-04T11:07:50;10.50;;;7.77;;
9409;SDS011;4744;52.576;13.568;2023-12-04T11:10:19;10.67;;;8.17;;
9409;SDS011;4744;52.576;13.568;2023-12-04T11:12:51;10.50;;;8.00;;
9409;SDS011;4744;52.576;13.568;2023-12-04T11:15:22;9.77;;;7.70;;
9409;SDS011;4744;52.576;13.568;2023-12-04T11:17:51;10.20;;;8.37;;
9409;SDS011;4744;52.576;13.568;2023-12-04T11:20:24;11.57;;;8.57;;
9409;SDS011;4744;52.576;13.568;2023-12-04T11:22:55;9.73;;;7.27;;
9409;SDS011;4744;52.576;13.568;2023-12-04T11:25:23;9.30;;;7.47;;
9409;SDS011;4744;52.576;13.568;2023-12-04T11:27:53;8.10;;;7.10;;
9409;SDS011;4744;52.576;13.568;2023-12-04T11:30:21;8.27;;;6.97;;
9409;SDS011;4744;52.576;13.568;2023-12-04T11:32:49;8.90;;;7.00;;
9409;SDS011;4744;52.576;13.568;2023-12-04T11:35:16;8.50;;;6.90;;
9409;SDS011;4744;52.576;13.568;2023-12-04T11:37:44;8.47;;;7.33;;
9409;SDS011;4744;52.576;13.568;2023-12-04T11:40:13;9.80;;;7.43;;
9409;SDS011;4744;52.576;13.568;2023-12-04T11:42:42;9.27;;;7.47;;
9409;SDS011;4744;52.576;13.568;2023-12-04T11:45:12;9.93;;;7.17;;
9409;SDS011;4744;52.576;13.568;2023-12-04T11:47:54;8.30;;;7.20;;
9409;SDS011;4744;52.576;13.568;2023-12-04T11:50:22;8.23;;;6.90;;
9409;SDS011;4744;52.576;13.568;2023-12-04T11:52:50;9.07;;;7.03;;
9409;SDS011;4744;52.576;13.568;2023-12-04T11:55:18;8.07;;;6.87;;
9409;SDS011;4744;52.576;13.568;2023-12-04T11:57:47;10.13;;;7.43;;
9409;SDS011;4744;52.576;13.568;2023-12-04T12:00:21;9.10;;;7.10;;
9409;SDS011;4744;52.576;13.568;2023-12-04T12:03:02;8.87;;;6.90;;
9409;SDS011;4744;52.576;13.568;2023-12-04T12:05:31;9.70;;;7.47;;
9409;SDS011;4744;52.576;13.568;2023-12-04T12:08:00;9.37;;;7.83;;
9409;SDS011;4744;52.576;13.568;2023-12-04T12:10:29;8.03;;;7.03;;
9409;SDS011;4744;52.576;13.568;2023-12-04T12:12:56;9.20;;;7.53;;
9409;SDS011;4744;52.576;13.568;2023-12-04T12:15:25;9.20;;;7.37;;
9409;SDS011;4744;52.576;13.568;2023-12-04T12:17:52;8.83;;;7.30;;
9409;SDS011;4744;52.576;13.568;2023-12-04T12:20:19;9.23;;;6.97;;
9409;SDS011;4744;52.576;13.568;2023-12-04T12:22:47;8.97;;;6.87;;
9409;SDS011;4744;52.576;13.568;2023-12-04T12:25:15;8.33;;;7.00;;
9409;SDS011;4744;52.576;13.568;2023-12-04T12:27:43;8.77;;;7.10;;
9409;SDS011;4744;52.576;13.568;2023-12-04T12:30:11;9.23;;;7.30;;
9409;SDS011;4744;52.576;13.568;2023-12-04T12:32:39;9.00;;;7.40;;
9409;SDS011;4744;52.576;13.568;2023-12-04T12:35:06;10.33;;;7.67;;
9409;SDS011;4744;52.576;13.568;2023-12-04T12:37:34;8.87;;;6.93;;
9409;SDS011;4744;52.576;13.568;2023-12-04T12:40:01;8.30;;;6.67;;
9409;SDS011;4744;52.576;13.568;2023-12-04T12:42:30;7.80;;;6.80;;
9409;SDS011;4744;52.576;13.568;2023-12-04T12:44:59;8.47;;;7.10;;
9409;SDS011;4744;52.576;13.568;2023-12-04T12:47:29;9.63;;;7.17;;
9409;SDS011;4744;52.576;13.568;2023-12-04T12:49:57;10.70;;;7.47;;
9409;SDS011;4744;52.576;13.568;2023-12-04T12:52:26;9.43;;;7.70;;
9409;SDS011;4744;52.576;13.568;2023-12-04T12:54:53;9.73;;;8.13;;
9409;SDS011;4744;52.576;13.568;2023-12-04T12:57:20;9.13;;;7.47;;
9409;SDS011;4744;52.576;13.568;2023-12-04T12:59:47;9.43;;;7.27;;
9409;SDS011;4744;52.576;13.568;2023-12-04T13:02:14;11.60;;;10.40;;
9409;SDS011;4744;52.576;13.568;2023-12-04T13:04:42;9.03;;;7.77;;
9409;SDS011;4744;52.576;13.568;2023-12-04T13:07:11;9.77;;;8.77;;
9409;SDS011;4744;52.576;13.568;2023-12-04T13:09:38;9.53;;;7.53;;
9409;SDS011;4744;52.576;13.568;2023-12-04T13:12:05;9.40;;;7.37;;
9409;SDS011;4744;52.576;13.568;2023-12-04T13:14:34;9.37;;;8.30;;
9409;SDS011;4744;52.576;13.568;2023-12-04T13:17:01;11.53;;;8.57;;
9409;SDS011;4744;52.576;13.568;2023-12-04T13:19:28;10.70;;;9.60;;
9409;SDS011;4744;52.576;13.568;2023-12-04T13:21:56;9.03;;;7.40;;
9409;SDS011;4744;52.576;13.568;2023-12-04T13:24:25;10.60;;;9.20;;
9409;SDS011;4744;52.576;13.568;2023-12-04T13:26:52;9.47;;;7.80;;
9409;SDS011;4744;52.576;13.568;2023-12-04T13:29:19;7.93;;;6.80;;
9409;SDS011;4744;52.576;13.568;2023-12-04T13:31:46;11.70;;;8.17;;
9409;SDS011;4744;52.576;13.568;2023-12-04T13:34:15;8.87;;;7.47;;
9409;SDS011;4744;52.576;13.568;2023-12-04T13:36:42;9.50;;;7.97;;
9409;SDS011;4744;52.576;13.568;2023-12-04T13:39:09;10.30;;;8.23;;
9409;SDS011;4744;52.576;13.568;2023-12-04T13:41:43;10.03;;;8.37;;
9409;SDS011;4744;52.576;13.568;2023-12-04T13:44:28;9.77;;;7.93;;
9409;SDS011;4744;52.576;13.568;2023-12-04T13:46:56;9.43;;;8.13;;
9409;SDS011;4744;52.576;13.568;2023-12-04T13:49:23;9.50;;;7.73;;
9409;SDS011;4744;52.576;13.568;2023-12-04T13:51:49;10.33;;;7.90;;
9409;SDS011;4744;52.576;13.568;2023-12-04T13:54:18;10.73;;;8.27;;
9409;SDS011;4744;52.576;13.568;2023-12-04T13:56:53;9.57;;;7.93;;
9409;SDS011;4744;52.576;13.568;2023-12-04T13:59:21;11.23;;;8.03;;
9409;SDS011;4744;52.576;13.568;2023-12-04T14:01:50;10.80;;;8.60;;
9409;SDS011;4744;52.576;13.568;2023-12-04T14:04:19;10.80;;;8.93;;
9409;SDS011;4744;52.576;13.568;2023-12-04T14:06:48;9.93;;;8.70;;
9409;SDS011;4744;52.576;13.568;2023-12-04T14:09:15;11.30;;;8.73;;
9409;SDS011;4744;52.576;13.568;2023-12-04T14:11:42;9.87;;;8.63;;
9409;SDS011;4744;52.576;13.568;2023-12-04T14:14:12;9.40;;;7.97;;
9409;SDS011;4744;52.576;13.568;2023-12-04T14:16:39;12.00;;;8.90;;
9409;SDS011;4744;52.576;13.568;2023-12-04T14:19:07;10.23;;;8.43;;
9409;SDS011;4744;52.576;13.568;2023-12-04T14:21:34;10.90;;;9.23;;
9409;SDS011;4744;52.576;13.568;2023-12-04T14:24:01;12.07;;;8.83;;
9409;SDS011;4744;52.576;13.568;2023-12-04T14:26:27;11.30;;;8.47;;
9409;SDS011;4744;52.576;13.568;2023-12-04T14:28:54;12.20;;;9.40;;
9409;SDS011;4744;52.576;13.568;2023-12-04T14:31:24;12.07;;;9.37;;
9409;SDS011;4744;52.576;13.568;2023-12-04T14:33:51;12.20;;;9.47;;
9409;SDS011;4744;52.576;13.568;2023-12-04T14:36:18;11.50;;;9.40;;
9409;SDS011;4744;52.576;13.568;2023-12-04T14:38:45;12.20;;;8.53;;
9409;SDS011;4744;52.576;13.568;2023-12-04T14:41:12;13.27;;;9.60;;
9409;SDS011;4744;52.576;13.568;2023-12-04T14:43:40;11.47;;;9.20;;
9409;SDS011;4744;52.576;13.568;2023-12-04T14:46:07;10.47;;;9.33;;